sensor_id;sensor_type;location;lat;lon;timestamp;pressure;altitude;pressure_sealevel;temperature;humidity
76416;BME280;65248;55.686;37.678;2022-12-07T00:01:55;101019.78;;;-9.35;57.09
76416;BME280;65248;55.686;37.678;2022-12-07T00:03:51;101024.75;;;-9.29;57.42
76416;BME280;65248;55.686;37.678;2022-12-07T00:06:18;101086.56;;;-8.92;56.99
76416;BME280;65248;55.686;37.678;2022-12-07T00:08:44;101026.31;;;-9.25;57.51
76416;BME280;65248;55.686;37.678;2022-12-07T00:11:13;101062.78;;;-9.05;57.49
76416;BME280;65248;55.686;37.678;2022-12-07T00:13:39;101089.00;;;-8.88;57.88
76416;BME280;65248;55.686;37.678;2022-12-07T00:16:10;101082.22;;;-8.92;56.88
76416;BME280;65248;55.686;37.678;2022-12-07T00:18:36;101082.09;;;-8.89;57.21
76416;BME280;65248;55.686;37.678;2022-12-07T00:21:08;101041.63;;;-9.18;56.51
76416;BME280;65248;55.686;37.678;2022-12-07T00:23:34;101056.03;;;-9.09;57.84
76416;BME280;65248;55.686;37.678;2022-12-07T00:26:08;101052.06;;;-9.19;57.70
76416;BME280;65248;55.686;37.678;2022-12-07T00:28:34;101082.44;;;-8.98;57.15
76416;BME280;65248;55.686;37.678;2022-12-07T00:31:05;101094.28;;;-8.91;58.27
76416;BME280;65248;55.686;37.678;2022-12-07T00:33:32;101082.91;;;-8.87;57.57
76416;BME280;65248;55.686;37.678;2022-12-07T00:35:59;101058.63;;;-9.09;56.84
76416;BME280;65248;55.686;37.678;2022-12-07T00:38:26;101084.25;;;-9.00;57.00
76416;BME280;65248;55.686;37.678;2022-12-07T00:40:56;101077.47;;;-9.04;57.16
76416;BME280;65248;55.686;37.678;2022-12-07T00:43:22;101020.75;;;-9.38;56.58
76416;BME280;65248;55.686;37.678;2022-12-07T00:45:48;101033.44;;;-9.30;57.04
76416;BME280;65248;55.686;37.678;2022-12-07T00:48:13;101065.34;;;-9.04;56.90
76416;BME280;65248;55.686;37.678;2022-12-07T00:50:38;101092.16;;;-9.03;56.73
76416;BME280;65248;55.686;37.678;2022-12-07T00:53:04;101017.19;;;-9.35;56.26
76416;BME280;65248;55.686;37.678;2022-12-07T00:55:33;101066.19;;;-9.03;56.35
76416;BME280;65248;55.686;37.678;2022-12-07T00:57:58;101066.25;;;-9.05;56.57
76416;BME280;65248;55.686;37.678;2022-12-07T01:00:24;101091.69;;;-9.14;55.60
76416;BME280;65248;55.686;37.678;2022-12-07T01:02:49;101046.25;;;-9.26;56.94
76416;BME280;65248;55.686;37.678;2022-12-07T01:05:15;101053.25;;;-9.28;57.08
76416;BME280;65248;55.686;37.678;2022-12-07T01:07:40;101092.13;;;-9.01;56.75
76416;BME280;65248;55.686;37.678;2022-12-07T01:10:06;101099.84;;;-9.00;57.29
76416;BME280;65248;55.686;37.678;2022-12-07T01:12:32;101093.97;;;-9.05;56.44
76416;BME280;65248;55.686;37.678;2022-12-07T01:14:57;101020.13;;;-9.44;56.94
76416;BME280;65248;55.686;37.678;2022-12-07T01:17:23;101055.13;;;-9.08;57.62
76416;BME280;65248;55.686;37.678;2022-12-07T01:19:48;101067.31;;;-9.10;57.28
76416;BME280;65248;55.686;37.678;2022-12-07T01:22:14;101066.38;;;-9.08;56.55
76416;BME280;65248;55.686;37.678;2022-12-07T01:24:39;101083.47;;;-9.02;55.68
76416;BME280;65248;55.686;37.678;2022-12-07T01:27:05;101052.19;;;-9.22;57.16
76416;BME280;65248;55.686;37.678;2022-12-07T01:29:30;101094.13;;;-9.10;57.44
76416;BME280;65248;55.686;37.678;2022-12-07T01:31:55;101026.06;;;-9.66;56.68
76416;BME280;65248;55.686;37.678;2022-12-07T01:34:21;101095.31;;;-9.18;57.16
76416;BME280;65248;55.686;37.678;2022-12-07T01:36:46;101069.34;;;-9.18;57.12
76416;BME280;65248;55.686;37.678;2022-12-07T01:39:12;101070.63;;;-9.30;57.00
76416;BME280;65248;55.686;37.678;2022-12-07T01:41:39;101024.72;;;-9.53;56.97
76416;BME280;65248;55.686;37.678;2022-12-07T01:44:26;101045.84;;;-9.38;57.70
76416;BME280;65248;55.686;37.678;2022-12-07T01:46:54;101072.84;;;-9.19;57.43
76416;BME280;65248;55.686;37.678;2022-12-07T01:49:59;101031.13;;;-9.38;57.95
76416;BME280;65248;55.686;37.678;2022-12-07T01:52:30;101025.41;;;-9.48;56.89
76416;BME280;65248;55.686;37.678;2022-12-07T01:55:01;101012.19;;;-9.65;57.17
76416;BME280;65248;55.686;37.678;2022-12-07T01:57:29;101047.66;;;-9.40;57.75
76416;BME280;65248;55.686;37.678;2022-12-07T01:59:56;100983.28;;;-9.79;58.04
76416;BME280;65248;55.686;37.678;2022-12-07T02:05:27;101013.97;;;-9.67;57.99
76416;BME280;65248;55.686;37.678;2022-12-07T02:07:55;101052.38;;;-9.52;58.65
76416;BME280;65248;55.686;37.678;2022-12-07T02:10:27;101059.53;;;-9.33;58.98
76416;BME280;65248;55.686;37.678;2022-12-07T02:13:04;101062.19;;;-9.36;59.04
76416;BME280;65248;55.686;37.678;2022-12-07T02:27:06;101040.31;;;-9.29;58.80
76416;BME280;65248;55.686;37.678;2022-12-07T02:40:50;101010.38;;;-9.63;59.07
76416;BME280;65248;55.686;37.678;2022-12-07T02:43:26;101058.66;;;-9.34;58.59
76416;BME280;65248;55.686;37.678;2022-12-07T02:45:57;101001.22;;;-9.73;58.05
76416;BME280;65248;55.686;37.678;2022-12-07T02:48:25;100993.34;;;-9.70;58.27
76416;BME280;65248;55.686;37.678;2022-12-07T02:50:53;101032.97;;;-9.41;58.05
76416;BME280;65248;55.686;37.678;2022-12-07T03:12:28;101060.47;;;-9.61;59.05
76416;BME280;65248;55.686;37.678;2022-12-07T03:15:01;101047.16;;;-9.75;58.34
76416;BME280;65248;55.686;37.678;2022-12-07T03:17:32;101046.50;;;-9.81;58.92
76416;BME280;65248;55.686;37.678;2022-12-07T03:20:02;101043.75;;;-9.77;58.29
76416;BME280;65248;55.686;37.678;2022-12-07T03:22:31;101051.28;;;-9.69;59.01
76416;BME280;65248;55.686;37.678;2022-12-07T03:25:01;101016.94;;;-10.02;58.74
76416;BME280;65248;55.686;37.678;2022-12-07T03:27:32;100999.50;;;-10.22;58.69
76416;BME280;65248;55.686;37.678;2022-12-07T03:30:06;101022.25;;;-10.05;59.23
76416;BME280;65248;55.686;37.678;2022-12-07T03:32:37;101055.34;;;-9.87;59.94
76416;BME280;65248;55.686;37.678;2022-12-07T03:35:14;100990.28;;;-10.30;59.31
76416;BME280;65248;55.686;37.678;2022-12-07T03:37:50;101051.94;;;-9.89;58.42
76416;BME280;65248;55.686;37.678;2022-12-07T03:42:57;100999.41;;;-10.19;59.72
76416;BME280;65248;55.686;37.678;2022-12-07T03:45:32;100976.06;;;-10.45;59.95
76416;BME280;65248;55.686;37.678;2022-12-07T03:48:07;101056.03;;;-10.08;59.81
76416;BME280;65248;55.686;37.678;2022-12-07T03:50:38;101044.97;;;-10.13;60.14
76416;BME280;65248;55.686;37.678;2022-12-07T03:53:12;101046.75;;;-10.15;60.02
76416;BME280;65248;55.686;37.678;2022-12-07T03:55:41;101008.56;;;-10.35;60.49
76416;BME280;65248;55.686;37.678;2022-12-07T03:58:12;100971.41;;;-10.60;60.90
76416;BME280;65248;55.686;37.678;2022-12-07T04:00:42;101015.09;;;-10.50;61.00
76416;BME280;65248;55.686;37.678;2022-12-07T04:03:08;100973.41;;;-10.68;60.51
76416;BME280;65248;55.686;37.678;2022-12-07T04:05:33;101001.25;;;-10.49;61.52
76416;BME280;65248;55.686;37.678;2022-12-07T04:07:59;100992.22;;;-10.63;60.91
76416;BME280;65248;55.686;37.678;2022-12-07T04:10:24;100951.50;;;-10.86;61.03
76416;BME280;65248;55.686;37.678;2022-12-07T04:12:50;100986.16;;;-10.62;61.33
76416;BME280;65248;55.686;37.678;2022-12-07T04:15:15;101003.03;;;-10.51;61.77
76416;BME280;65248;55.686;37.678;2022-12-07T04:17:40;101024.59;;;-10.50;61.59
76416;BME280;65248;55.686;37.678;2022-12-07T04:20:07;100872.75;;;-11.33;61.38
76416;BME280;65248;55.686;37.678;2022-12-07T04:22:42;101038.81;;;-10.36;62.48
76416;BME280;65248;55.686;37.678;2022-12-07T04:25:07;100977.03;;;-10.74;62.11
76416;BME280;65248;55.686;37.678;2022-12-07T04:27:33;101026.34;;;-10.51;62.77
76416;BME280;65248;55.686;37.678;2022-12-07T04:29:58;101014.50;;;-10.58;63.27
76416;BME280;65248;55.686;37.678;2022-12-07T04:32:24;101031.50;;;-10.49;63.31
76416;BME280;65248;55.686;37.678;2022-12-07T04:34:49;101008.84;;;-10.70;63.14
76416;BME280;65248;55.686;37.678;2022-12-07T04:37:15;100948.56;;;-11.03;63.43
76416;BME280;65248;55.686;37.678;2022-12-07T04:39:41;100999.53;;;-10.76;63.41
76416;BME280;65248;55.686;37.678;2022-12-07T04:42:06;101035.81;;;-10.50;63.97
76416;BME280;65248;55.686;37.678;2022-12-07T04:44:32;101030.63;;;-10.50;62.29
76416;BME280;65248;55.686;37.678;2022-12-07T04:46:57;100982.50;;;-10.83;63.25
76416;BME280;65248;55.686;37.678;2022-12-07T04:49:24;101026.69;;;-10.61;63.35
76416;BME280;65248;55.686;37.678;2022-12-07T04:51:50;101018.31;;;-10.69;63.38
76416;BME280;65248;55.686;37.678;2022-12-07T04:54:16;100942.91;;;-11.14;63.98
76416;BME280;65248;55.686;37.678;2022-12-07T04:56:42;101044.88;;;-10.63;63.46
76416;BME280;65248;55.686;37.678;2022-12-07T04:59:09;101023.31;;;-10.63;63.46
76416;BME280;65248;55.686;37.678;2022-12-07T05:01:35;101024.06;;;-10.60;64.86
76416;BME280;65248;55.686;37.678;2022-12-07T05:04:00;101035.28;;;-10.59;63.74
76416;BME280;65248;55.686;37.678;2022-12-07T05:06:26;101002.28;;;-10.82;64.64
76416;BME280;65248;55.686;37.678;2022-12-07T05:08:52;101032.47;;;-10.81;64.23
76416;BME280;65248;55.686;37.678;2022-12-07T05:11:17;101021.91;;;-10.73;64.98
76416;BME280;65248;55.686;37.678;2022-12-07T05:14:03;101035.63;;;-10.71;64.19
76416;BME280;65248;55.686;37.678;2022-12-07T05:16:29;100986.81;;;-11.11;64.18
76416;BME280;65248;55.686;37.678;2022-12-07T05:18:54;101031.59;;;-10.80;64.60
76416;BME280;65248;55.686;37.678;2022-12-07T05:21:20;101000.25;;;-10.99;64.89
76416;BME280;65248;55.686;37.678;2022-12-07T05:23:45;101005.19;;;-10.91;64.78
76416;BME280;65248;55.686;37.678;2022-12-07T05:26:11;101026.28;;;-10.76;64.95
76416;BME280;65248;55.686;37.678;2022-12-07T05:28:36;100959.50;;;-11.22;65.94
76416;BME280;65248;55.686;37.678;2022-12-07T05:31:02;101020.50;;;-10.84;66.30
76416;BME280;65248;55.686;37.678;2022-12-07T05:33:28;100996.09;;;-11.04;66.28
76416;BME280;65248;55.686;37.678;2022-12-07T05:35:53;100973.13;;;-11.15;65.82
76416;BME280;65248;55.686;37.678;2022-12-07T05:38:19;100930.44;;;-11.30;65.54
76416;BME280;65248;55.686;37.678;2022-12-07T05:40:44;100888.75;;;-11.50;65.29
76416;BME280;65248;55.686;37.678;2022-12-07T05:43:10;101016.88;;;-10.78;65.16
76416;BME280;65248;55.686;37.678;2022-12-07T05:45:36;100994.06;;;-10.95;66.32
76416;BME280;65248;55.686;37.678;2022-12-07T05:48:02;100991.53;;;-10.96;65.42
76416;BME280;65248;55.686;37.678;2022-12-07T05:50:27;100992.22;;;-10.91;66.01
76416;BME280;65248;55.686;37.678;2022-12-07T05:52:53;101008.31;;;-10.82;65.68
76416;BME280;65248;55.686;37.678;2022-12-07T05:55:19;101036.31;;;-10.65;65.66
76416;BME280;65248;55.686;37.678;2022-12-07T05:57:44;100941.50;;;-11.25;65.95
76416;BME280;65248;55.686;37.678;2022-12-07T06:00:30;101046.38;;;-10.56;65.33
76416;BME280;65248;55.686;37.678;2022-12-07T06:02:55;100977.91;;;-10.75;65.19
76416;BME280;65248;55.686;37.678;2022-12-07T06:05:21;101004.56;;;-10.71;65.76
76416;BME280;65248;55.686;37.678;2022-12-07T06:07:46;101020.56;;;-10.59;66.82
76416;BME280;65248;55.686;37.678;2022-12-07T06:10:11;100965.03;;;-11.04;65.92
76416;BME280;65248;55.686;37.678;2022-12-07T06:12:37;100985.16;;;-10.86;66.58
76416;BME280;65248;55.686;37.678;2022-12-07T06:15:05;101014.78;;;-10.67;65.62
76416;BME280;65248;55.686;37.678;2022-12-07T06:17:31;101009.06;;;-10.50;67.05
76416;BME280;65248;55.686;37.678;2022-12-07T06:19:56;100998.81;;;-10.53;66.96
76416;BME280;65248;55.686;37.678;2022-12-07T06:22:22;100982.91;;;-10.69;66.37
76416;BME280;65248;55.686;37.678;2022-12-07T06:24:47;100976.72;;;-10.65;66.16
76416;BME280;65248;55.686;37.678;2022-12-07T06:27:13;100990.78;;;-10.46;66.57
76416;BME280;65248;55.686;37.678;2022-12-07T06:29:38;101012.31;;;-10.44;66.52
76416;BME280;65248;55.686;37.678;2022-12-07T06:32:04;100987.84;;;-10.35;66.37
76416;BME280;65248;55.686;37.678;2022-12-07T06:34:30;100968.97;;;-10.39;65.88
76416;BME280;65248;55.686;37.678;2022-12-07T06:36:56;100990.91;;;-10.24;67.76
76416;BME280;65248;55.686;37.678;2022-12-07T06:39:24;100975.03;;;-10.40;66.92
76416;BME280;65248;55.686;37.678;2022-12-07T06:41:50;100998.66;;;-10.22;66.46
76416;BME280;65248;55.686;37.678;2022-12-07T06:44:17;100983.94;;;-10.22;66.84
76416;BME280;65248;55.686;37.678;2022-12-07T06:46:43;101007.16;;;-9.94;66.94
76416;BME280;65248;55.686;37.678;2022-12-07T06:49:08;101024.69;;;-10.01;66.19
76416;BME280;65248;55.686;37.678;2022-12-07T06:51:34;100980.00;;;-10.09;65.39
76416;BME280;65248;55.686;37.678;2022-12-07T06:54:02;100973.97;;;-10.09;66.26
76416;BME280;65248;55.686;37.678;2022-12-07T06:56:29;101011.81;;;-9.79;66.75
76416;BME280;65248;55.686;37.678;2022-12-07T06:58:54;101020.28;;;-9.74;67.49
76416;BME280;65248;55.686;37.678;2022-12-07T07:01:20;100997.91;;;-10.01;67.58
76416;BME280;65248;55.686;37.678;2022-12-07T07:03:45;101017.13;;;-9.82;66.51
76416;BME280;65248;55.686;37.678;2022-12-07T07:06:12;101019.72;;;-9.82;66.33
76416;BME280;65248;55.686;37.678;2022-12-07T07:08:38;101013.78;;;-9.61;66.18
76416;BME280;65248;55.686;37.678;2022-12-07T07:11:05;101014.41;;;-9.79;65.89
76416;BME280;65248;55.686;37.678;2022-12-07T07:13:32;101013.91;;;-9.64;65.60
76416;BME280;65248;55.686;37.678;2022-12-07T07:15:57;101000.84;;;-9.62;65.38
76416;BME280;65248;55.686;37.678;2022-12-07T07:18:23;101014.38;;;-9.29;65.27
76416;BME280;65248;55.686;37.678;2022-12-07T07:20:50;100993.59;;;-9.29;64.36
76416;BME280;65248;55.686;37.678;2022-12-07T07:23:15;101008.88;;;-9.45;64.89
76416;BME280;65248;55.686;37.678;2022-12-07T07:25:41;101021.97;;;-9.25;64.27
76416;BME280;65248;55.686;37.678;2022-12-07T07:28:06;101023.81;;;-8.82;64.35
76416;BME280;65248;55.686;37.678;2022-12-07T07:30:32;101019.97;;;-8.95;63.54
76416;BME280;65248;55.686;37.678;2022-12-07T07:32:59;101030.44;;;-9.20;64.91
76416;BME280;65248;55.686;37.678;2022-12-07T07:35:27;101020.13;;;-8.98;64.02
76416;BME280;65248;55.686;37.678;2022-12-07T07:37:53;100996.56;;;-8.93;63.45
76416;BME280;65248;55.686;37.678;2022-12-07T07:40:19;101014.56;;;-8.89;63.19
76416;BME280;65248;55.686;37.678;2022-12-07T07:42:47;100998.44;;;-8.97;63.21
76416;BME280;65248;55.686;37.678;2022-12-07T07:45:13;100997.44;;;-9.39;64.90
76416;BME280;65248;55.686;37.678;2022-12-07T07:47:39;101000.19;;;-9.21;64.60
76416;BME280;65248;55.686;37.678;2022-12-07T07:50:05;100969.53;;;-9.58;65.18
76416;BME280;65248;55.686;37.678;2022-12-07T07:52:30;100960.81;;;-9.55;65.18
76416;BME280;65248;55.686;37.678;2022-12-07T07:54:56;100997.66;;;-9.46;65.07
76416;BME280;65248;55.686;37.678;2022-12-07T07:57:21;100918.16;;;-9.71;64.75
76416;BME280;65248;55.686;37.678;2022-12-07T07:59:47;100995.16;;;-9.25;64.27
76416;BME280;65248;55.686;37.678;2022-12-07T08:02:17;100998.13;;;-8.89;63.43
76416;BME280;65248;55.686;37.678;2022-12-07T08:04:44;101003.56;;;-8.74;63.67
76416;BME280;65248;55.686;37.678;2022-12-07T08:07:10;100992.66;;;-9.05;64.08
76416;BME280;65248;55.686;37.678;2022-12-07T08:09:36;100958.22;;;-9.10;63.50
76416;BME280;65248;55.686;37.678;2022-12-07T08:12:01;100988.22;;;-8.80;63.04
76416;BME280;65248;55.686;37.678;2022-12-07T08:14:27;100950.44;;;-9.10;63.89
76416;BME280;65248;55.686;37.678;2022-12-07T08:16:54;100983.38;;;-8.89;63.79
76416;BME280;65248;55.686;37.678;2022-12-07T08:19:19;100997.03;;;-8.84;63.57
76416;BME280;65248;55.686;37.678;2022-12-07T08:21:45;100941.38;;;-9.00;62.80
76416;BME280;65248;55.686;37.678;2022-12-07T08:24:11;100941.22;;;-9.17;63.65
76416;BME280;65248;55.686;37.678;2022-12-07T08:26:36;100955.78;;;-9.13;64.42
76416;BME280;65248;55.686;37.678;2022-12-07T08:29:02;100975.72;;;-8.92;63.27
76416;BME280;65248;55.686;37.678;2022-12-07T08:31:27;100981.34;;;-8.81;64.12
76416;BME280;65248;55.686;37.678;2022-12-07T08:33:54;100973.34;;;-8.98;63.33
76416;BME280;65248;55.686;37.678;2022-12-07T08:36:19;100951.91;;;-9.03;63.73
76416;BME280;65248;55.686;37.678;2022-12-07T08:38:46;100961.50;;;-8.83;63.55
76416;BME280;65248;55.686;37.678;2022-12-07T08:41:12;100960.38;;;-8.98;62.93
76416;BME280;65248;55.686;37.678;2022-12-07T08:43:37;100933.91;;;-8.86;62.75
76416;BME280;65248;55.686;37.678;2022-12-07T08:46:13;100957.47;;;-8.69;62.37
76416;BME280;65248;55.686;37.678;2022-12-07T08:48:44;100947.63;;;-8.61;61.14
76416;BME280;65248;55.686;37.678;2022-12-07T08:51:11;100967.53;;;-8.39;61.11
76416;BME280;65248;55.686;37.678;2022-12-07T08:53:37;100943.09;;;-8.35;60.63
76416;BME280;65248;55.686;37.678;2022-12-07T08:56:04;100954.47;;;-8.38;60.63
76416;BME280;65248;55.686;37.678;2022-12-07T08:58:30;100969.75;;;-8.10;59.96
76416;BME280;65248;55.686;37.678;2022-12-07T09:00:56;100921.09;;;-8.48;60.02
76416;BME280;65248;55.686;37.678;2022-12-07T09:03:22;100952.25;;;-8.06;59.93
76416;BME280;65248;55.686;37.678;2022-12-07T09:05:47;100898.25;;;-8.40;60.18
76416;BME280;65248;55.686;37.678;2022-12-07T09:08:13;100953.13;;;-8.07;59.46
76416;BME280;65248;55.686;37.678;2022-12-07T09:10:39;100941.88;;;-8.08;59.36
76416;BME280;65248;55.686;37.678;2022-12-07T09:13:04;100916.25;;;-7.97;58.83
76416;BME280;65248;55.686;37.678;2022-12-07T09:15:30;100925.97;;;-8.21;58.12
76416;BME280;65248;55.686;37.678;2022-12-07T09:17:56;100923.44;;;-8.22;59.26
76416;BME280;65248;55.686;37.678;2022-12-07T09:20:22;100926.41;;;-8.11;59.35
76416;BME280;65248;55.686;37.678;2022-12-07T09:22:48;100940.78;;;-8.02;59.51
76416;BME280;65248;55.686;37.678;2022-12-07T09:25:13;100906.19;;;-8.04;58.48
76416;BME280;65248;55.686;37.678;2022-12-07T09:27:39;100933.28;;;-7.69;57.81
76416;BME280;65248;55.686;37.678;2022-12-07T09:30:05;100897.53;;;-7.85;57.37
76416;BME280;65248;55.686;37.678;2022-12-07T09:32:32;100923.28;;;-7.79;57.75
76416;BME280;65248;55.686;37.678;2022-12-07T09:34:58;100904.53;;;-7.87;57.50
76416;BME280;65248;55.686;37.678;2022-12-07T09:37:23;100886.19;;;-7.84;57.47
76416;BME280;65248;55.686;37.678;2022-12-07T09:39:49;100897.38;;;-7.82;58.68
76416;BME280;65248;55.686;37.678;2022-12-07T09:42:32;100931.09;;;-7.79;57.00
76416;BME280;65248;55.686;37.678;2022-12-07T09:44:59;100901.56;;;-7.78;57.51
76416;BME280;65248;55.686;37.678;2022-12-07T09:47:32;100894.88;;;-7.64;56.59
76416;BME280;65248;55.686;37.678;2022-12-07T09:50:16;100889.09;;;-7.71;56.46
76416;BME280;65248;55.686;37.678;2022-12-07T09:52:44;100888.81;;;-7.84;56.86
76416;BME280;65248;55.686;37.678;2022-12-07T09:55:19;100886.75;;;-7.96;56.26
76416;BME280;65248;55.686;37.678;2022-12-07T09:57:48;100871.34;;;-7.82;56.59
76416;BME280;65248;55.686;37.678;2022-12-07T10:00:19;100903.03;;;-7.53;55.32
76416;BME280;65248;55.686;37.678;2022-12-07T10:02:51;100871.06;;;-7.76;55.98
76416;BME280;65248;55.686;37.678;2022-12-07T10:05:22;100841.13;;;-7.84;56.52
76416;BME280;65248;55.686;37.678;2022-12-07T10:07:49;100878.81;;;-7.55;55.64
76416;BME280;65248;55.686;37.678;2022-12-07T10:10:19;100869.03;;;-7.50;54.92
76416;BME280;65248;55.686;37.678;2022-12-07T10:13:11;100898.97;;;-7.59;55.65
76416;BME280;65248;55.686;37.678;2022-12-07T10:16:07;100881.78;;;-7.63;55.45
76416;BME280;65248;55.686;37.678;2022-12-07T10:18:54;100880.78;;;-7.60;55.76
76416;BME280;65248;55.686;37.678;2022-12-07T10:24:13;100881.91;;;-7.66;55.55
76416;BME280;65248;55.686;37.678;2022-12-07T10:34:39;100849.72;;;-7.63;55.84
76416;BME280;65248;55.686;37.678;2022-12-07T10:39:53;100857.94;;;-7.72;55.71
76416;BME280;65248;55.686;37.678;2022-12-07T10:42:27;100852.66;;;-7.71;56.01
76416;BME280;65248;55.686;37.678;2022-12-07T10:45:15;100879.59;;;-7.53;56.68
76416;BME280;65248;55.686;37.678;2022-12-07T10:47:51;100866.16;;;-7.63;56.44
76416;BME280;65248;55.686;37.678;2022-12-07T11:01:22;100830.25;;;-7.56;57.04
76416;BME280;65248;55.686;37.678;2022-12-07T11:06:45;100828.00;;;-7.45;57.63
76416;BME280;65248;55.686;37.678;2022-12-07T11:12:33;100815.34;;;-7.72;56.59
76416;BME280;65248;55.686;37.678;2022-12-07T11:30:41;100828.06;;;-7.83;56.58
76416;BME280;65248;55.686;37.678;2022-12-07T11:33:10;100813.97;;;-7.79;57.18
76416;BME280;65248;55.686;37.678;2022-12-07T11:35:54;100834.78;;;-7.79;56.99
76416;BME280;65248;55.686;37.678;2022-12-07T11:38:37;100820.38;;;-7.86;57.67
76416;BME280;65248;55.686;37.678;2022-12-07T11:41:06;100759.97;;;-8.11;57.89
76416;BME280;65248;55.686;37.678;2022-12-07T11:46:49;100791.88;;;-8.07;58.08
76416;BME280;65248;55.686;37.678;2022-12-07T11:52:06;100767.41;;;-8.22;59.17
76416;BME280;65248;55.686;37.678;2022-12-07T11:54:41;100818.44;;;-8.01;58.54
76416;BME280;65248;55.686;37.678;2022-12-07T11:57:17;100826.63;;;-7.90;59.13
76416;BME280;65248;55.686;37.678;2022-12-07T12:00:01;100807.34;;;-7.86;58.22
76416;BME280;65248;55.686;37.678;2022-12-07T12:02:51;100815.06;;;-8.03;58.42
76416;BME280;65248;55.686;37.678;2022-12-07T12:05:41;100816.38;;;-7.93;58.72
76416;BME280;65248;55.686;37.678;2022-12-07T12:08:36;100778.78;;;-8.25;58.79
76416;BME280;65248;55.686;37.678;2022-12-07T12:17:21;100765.19;;;-8.30;59.92
76416;BME280;65248;55.686;37.678;2022-12-07T12:22:43;100797.19;;;-8.29;60.73
76416;BME280;65248;55.686;37.678;2022-12-07T12:25:44;100782.31;;;-8.07;59.77
76416;BME280;65248;55.686;37.678;2022-12-07T12:28:29;100791.72;;;-8.23;59.76
76416;BME280;65248;55.686;37.678;2022-12-07T12:31:16;100777.56;;;-8.35;61.57
76416;BME280;65248;55.686;37.678;2022-12-07T12:33:58;100779.66;;;-8.24;60.16
76416;BME280;65248;55.686;37.678;2022-12-07T12:46:57;100768.66;;;-8.49;61.03
76416;BME280;65248;55.686;37.678;2022-12-07T12:54:35;100772.19;;;-8.71;62.89
76416;BME280;65248;55.686;37.678;2022-12-07T13:04:58;100778.56;;;-8.98;63.32
76416;BME280;65248;55.686;37.678;2022-12-07T13:13:04;100777.50;;;-8.94;63.90
76416;BME280;65248;55.686;37.678;2022-12-07T13:15:54;100787.97;;;-8.95;63.88
76416;BME280;65248;55.686;37.678;2022-12-07T13:28:47;100786.59;;;-9.04;64.55
76416;BME280;65248;55.686;37.678;2022-12-07T13:31:30;100780.09;;;-9.14;64.11
76416;BME280;65248;55.686;37.678;2022-12-07T13:33:57;100735.22;;;-9.38;64.59
76416;BME280;65248;55.686;37.678;2022-12-07T13:36:25;100761.75;;;-9.31;65.09
76416;BME280;65248;55.686;37.678;2022-12-07T13:38:56;100660.06;;;-9.83;65.44
76416;BME280;65248;55.686;37.678;2022-12-07T13:41:26;100761.47;;;-9.24;65.44
76416;BME280;65248;55.686;37.678;2022-12-07T13:44:13;100743.81;;;-9.37;65.45
76416;BME280;65248;55.686;37.678;2022-12-07T13:46:59;100758.16;;;-9.27;65.72
76416;BME280;65248;55.686;37.678;2022-12-07T13:49:28;100740.53;;;-9.63;65.60
76416;BME280;65248;55.686;37.678;2022-12-07T13:51:55;100633.34;;;-10.05;65.64
76416;BME280;65248;55.686;37.678;2022-12-07T13:54:32;100775.53;;;-9.29;65.28
76416;BME280;65248;55.686;37.678;2022-12-07T13:56:58;100749.16;;;-9.40;65.76
76416;BME280;65248;55.686;37.678;2022-12-07T13:59:25;100753.44;;;-9.39;65.46
76416;BME280;65248;55.686;37.678;2022-12-07T14:01:52;100727.88;;;-9.49;65.41
76416;BME280;65248;55.686;37.678;2022-12-07T14:06:58;100745.09;;;-9.48;65.12
76416;BME280;65248;55.686;37.678;2022-12-07T14:09:25;100712.94;;;-9.64;65.74
76416;BME280;65248;55.686;37.678;2022-12-07T14:11:56;100770.91;;;-9.43;66.04
76416;BME280;65248;55.686;37.678;2022-12-07T14:14:27;100754.53;;;-9.45;65.34
76416;BME280;65248;55.686;37.678;2022-12-07T14:17:18;100750.28;;;-9.48;65.54
76416;BME280;65248;55.686;37.678;2022-12-07T14:22:55;100685.91;;;-10.02;65.80
76416;BME280;65248;55.686;37.678;2022-12-07T14:25:22;100773.84;;;-9.52;65.98
76416;BME280;65248;55.686;37.678;2022-12-07T14:27:59;100765.06;;;-9.48;65.34
76416;BME280;65248;55.686;37.678;2022-12-07T14:30:28;100755.63;;;-9.51;65.84
76416;BME280;65248;55.686;37.678;2022-12-07T14:32:59;100719.16;;;-9.90;66.08
76416;BME280;65248;55.686;37.678;2022-12-07T14:35:25;100770.25;;;-9.48;65.76
76416;BME280;65248;55.686;37.678;2022-12-07T14:37:51;100716.00;;;-9.76;65.57
76416;BME280;65248;55.686;37.678;2022-12-07T14:40:21;100760.00;;;-9.53;66.80
76416;BME280;65248;55.686;37.678;2022-12-07T14:43:22;100756.56;;;-9.53;65.63
76416;BME280;65248;55.686;37.678;2022-12-07T14:45:40;100739.22;;;-9.73;66.33
76416;BME280;65248;55.686;37.678;2022-12-07T14:48:10;100703.97;;;-9.78;65.87
76416;BME280;65248;55.686;37.678;2022-12-07T14:50:42;100735.94;;;-9.56;66.82
76416;BME280;65248;55.686;37.678;2022-12-07T14:53:18;100701.00;;;-9.90;65.88
76416;BME280;65248;55.686;37.678;2022-12-07T14:55:46;100723.31;;;-9.64;67.08
76416;BME280;65248;55.686;37.678;2022-12-07T14:58:14;100744.72;;;-9.59;66.40
76416;BME280;65248;55.686;37.678;2022-12-07T15:00:40;100713.25;;;-9.95;66.82
76416;BME280;65248;55.686;37.678;2022-12-07T15:03:06;100697.56;;;-9.90;65.98
76416;BME280;65248;55.686;37.678;2022-12-07T15:05:32;100732.88;;;-9.66;66.32
76416;BME280;65248;55.686;37.678;2022-12-07T15:07:58;100665.50;;;-9.89;67.75
76416;BME280;65248;55.686;37.678;2022-12-07T15:10:31;100725.09;;;-9.66;67.59
76416;BME280;65248;55.686;37.678;2022-12-07T15:13:02;100679.03;;;-9.81;68.27
76416;BME280;65248;55.686;37.678;2022-12-07T15:15:48;100713.63;;;-9.60;67.83
76416;BME280;65248;55.686;37.678;2022-12-07T15:18:14;100679.25;;;-9.87;67.09
76416;BME280;65248;55.686;37.678;2022-12-07T15:20:40;100709.78;;;-9.72;66.89
76416;BME280;65248;55.686;37.678;2022-12-07T15:23:06;100640.19;;;-10.04;67.93